createdAt,value
2023-02-21T00:00:47.514Z,12.73
2023-02-21T00:03:32.532Z,11.10
2023-02-21T00:06:17.422Z,12.00
2023-02-21T00:09:02.296Z,9.52
2023-02-21T00:11:47.248Z,14.57
2023-02-21T00:14:33.385Z,10.38
2023-02-21T00:17:18.105Z,13.20
2023-02-21T00:20:02.994Z,12.30
2023-02-21T00:22:48.046Z,15.68
2023-02-21T00:25:32.792Z,11.20
2023-02-21T00:28:19.418Z,10.75
2023-02-21T00:31:07.787Z,19.75
2023-02-21T00:33:54.428Z,12.27
2023-02-21T00:36:39.587Z,12.60
2023-02-21T00:39:24.546Z,17.75
2023-02-21T00:42:09.596Z,18.85
2023-02-21T00:44:54.472Z,16.20
2023-02-21T00:47:40.530Z,16.95
2023-02-21T00:50:25.908Z,16.60
2023-02-21T00:53:10.867Z,13.07
2023-02-21T00:55:55.929Z,11.07
2023-02-21T00:58:40.838Z,9.43
2023-02-21T01:01:26.246Z,10.82
2023-02-21T01:04:12.850Z,9.52
2023-02-21T01:06:58.050Z,11.85
2023-02-21T01:09:42.851Z,13.18
2023-02-21T01:12:27.589Z,8.00
2023-02-21T01:15:12.539Z,11.20
2023-02-21T01:17:57.387Z,5.38
2023-02-21T01:20:43.894Z,9.27
2023-02-21T01:23:28.895Z,11.45
2023-02-21T01:26:15.241Z,7.53
2023-02-21T01:29:00.523Z,8.15
2023-02-21T01:31:45.485Z,9.95
2023-02-21T01:34:30.863Z,10.07
2023-02-21T01:37:17.107Z,7.75
2023-02-21T01:40:01.942Z,10.60
2023-02-21T01:42:47.634Z,10.23
2023-02-21T01:46:02.973Z,15.27
2023-02-21T01:48:48.769Z,12.00
2023-02-21T01:51:36.741Z,13.52
2023-02-21T01:54:24.062Z,9.45
2023-02-21T01:57:08.912Z,10.57
2023-02-21T01:59:54.266Z,14.85
2023-02-21T02:02:42.651Z,9.40
2023-02-21T02:05:29.606Z,7.63
2023-02-21T02:08:14.981Z,12.18
2023-02-21T02:11:02.679Z,8.77
2023-02-21T02:13:54.182Z,9.30
2023-02-21T02:16:26.979Z,8.77
2023-02-21T02:19:18.231Z,6.40
2023-02-21T02:22:12.957Z,10.18
2023-02-21T02:25:04.391Z,7.20
2023-02-21T02:27:52.308Z,9.27
2023-02-21T02:30:35.375Z,5.88
2023-02-21T02:33:15.346Z,6.10
2023-02-21T02:35:47.619Z,8.82
2023-02-21T02:38:19.210Z,4.65
2023-02-21T02:40:49.062Z,9.98
2023-02-21T02:43:18.169Z,12.23
2023-02-21T02:45:47.439Z,3.38
2023-02-21T02:48:16.343Z,10.98
2023-02-21T02:50:46.942Z,7.20
2023-02-21T02:53:17.848Z,3.15
2023-02-21T02:55:49.250Z,7.45
2023-02-21T02:58:17.022Z,8.18
2023-02-21T03:00:46.866Z,11.10
2023-02-21T03:03:32.104Z,5.85
2023-02-21T03:06:07.375Z,5.35
2023-02-21T03:08:41.100Z,4.97
2023-02-21T03:11:12.624Z,5.30
2023-02-21T03:13:44.171Z,4.60
2023-02-21T03:16:15.370Z,8.20
2023-02-21T03:18:44.452Z,9.18
2023-02-21T03:21:15.103Z,7.55
2023-02-21T03:23:44.815Z,7.63
2023-02-21T03:26:13.006Z,4.68
2023-02-21T03:28:40.926Z,6.07
2023-02-21T03:31:09.973Z,9.60
2023-02-21T03:33:37.495Z,7.13
2023-02-21T03:36:05.852Z,2.85
2023-02-21T03:38:34.735Z,6.68
2023-02-21T03:41:02.351Z,6.22
2023-02-21T03:43:29.874Z,7.93
2023-02-21T03:45:57.437Z,12.35
2023-02-21T03:48:31.940Z,8.05
2023-02-21T03:51:00.049Z,5.68
2023-02-21T03:53:27.657Z,7.50
2023-02-21T03:55:56.595Z,6.28
2023-02-21T03:58:24.175Z,7.78
2023-02-21T04:00:53.874Z,5.15
2023-02-21T04:03:21.429Z,7.57
2023-02-21T04:05:48.920Z,7.63
2023-02-21T04:08:16.419Z,6.97
2023-02-21T04:10:52.110Z,7.20
2023-02-21T04:13:23.644Z,2.72
2023-02-21T04:15:51.225Z,6.78
2023-02-21T04:18:18.802Z,8.70
2023-02-21T04:20:47.458Z,6.97
2023-02-21T04:23:17.439Z,3.75
2023-02-21T04:25:45.041Z,4.15
2023-02-21T04:28:12.659Z,4.30
2023-02-21T04:30:41.619Z,10.63
2023-02-21T04:33:09.195Z,9.50
2023-02-21T04:35:36.802Z,8.27
2023-02-21T04:38:04.305Z,12.65
2023-02-21T04:40:31.908Z,6.30
2023-02-21T04:42:59.392Z,11.27
2023-02-21T04:45:26.946Z,7.25
2023-02-21T04:47:55.802Z,10.18
2023-02-21T04:50:23.322Z,10.15
2023-02-21T04:52:50.840Z,12.63
2023-02-21T04:55:18.505Z,7.43
2023-02-21T04:57:46.045Z,5.07
2023-02-21T05:00:14.464Z,12.18
2023-02-21T05:02:43.532Z,8.55
2023-02-21T05:05:12.596Z,4.35
2023-02-21T05:07:42.058Z,12.65
2023-02-21T05:10:09.892Z,13.00
2023-02-21T05:12:37.995Z,3.97
2023-02-21T05:15:05.741Z,5.45
2023-02-21T05:17:33.470Z,7.18
2023-02-21T05:20:01.023Z,6.20
2023-02-21T05:22:29.911Z,6.97
2023-02-21T05:24:57.504Z,7.45
2023-02-21T05:27:25.049Z,8.82
2023-02-21T05:29:53.907Z,6.63
2023-02-21T05:32:22.389Z,7.30
2023-02-21T05:34:49.932Z,15.43
2023-02-21T05:37:18.274Z,12.02
2023-02-21T05:39:47.278Z,12.70
2023-02-21T05:42:14.844Z,10.27
2023-02-21T05:44:44.457Z,6.05
2023-02-21T05:47:12.869Z,12.00
2023-02-21T05:49:40.396Z,7.80
2023-02-21T05:52:08.403Z,5.95
2023-02-21T05:54:36.006Z,12.52
2023-02-21T05:57:04.852Z,6.25
2023-02-21T05:59:32.366Z,12.00
2023-02-21T06:01:59.870Z,11.88
2023-02-21T06:04:27.430Z,5.10
2023-02-21T06:06:55.936Z,6.45
2023-02-21T06:09:23.909Z,10.80
2023-02-21T06:11:51.429Z,6.50
2023-02-21T06:14:21.463Z,9.45
2023-02-21T06:16:48.941Z,9.55
2023-02-21T06:19:17.834Z,7.05
2023-02-21T06:21:45.717Z,8.57
2023-02-21T06:24:13.592Z,14.02
2023-02-21T06:26:42.457Z,11.52
2023-02-21T06:29:11.249Z,10.55
2023-02-21T06:31:40.303Z,10.68
2023-02-21T06:34:08.018Z,7.38
2023-02-21T06:36:36.046Z,10.00
2023-02-21T06:39:03.537Z,8.73
2023-02-21T06:41:32.239Z,11.68
2023-02-21T06:43:59.891Z,9.00
2023-02-21T06:46:28.667Z,6.78
2023-02-21T06:48:57.905Z,5.40
2023-02-21T06:51:29.414Z,5.45
2023-02-21T06:53:57.837Z,18.38
2023-02-21T06:56:26.017Z,6.25
2023-02-21T06:58:53.582Z,8.18
2023-02-21T07:01:21.494Z,5.97
2023-02-21T07:03:49.040Z,6.07
2023-02-21T07:06:17.944Z,5.45
2023-02-21T07:08:45.465Z,4.72
2023-02-21T07:11:13.980Z,8.23
2023-02-21T07:13:47.862Z,8.48
2023-02-21T07:16:18.045Z,6.30
2023-02-21T07:18:45.896Z,13.00
2023-02-21T07:21:14.388Z,8.85
2023-02-21T07:23:43.801Z,13.57
2023-02-21T07:26:11.551Z,8.75
2023-02-21T07:28:39.140Z,8.05
2023-02-21T07:31:06.799Z,9.68
2023-02-21T07:33:34.534Z,5.18
2023-02-21T07:36:02.127Z,6.82
2023-02-21T07:38:30.493Z,6.03
2023-02-21T07:41:00.536Z,6.70
2023-02-21T07:43:29.120Z,9.23
2023-02-21T07:45:57.038Z,8.98
2023-02-21T07:48:24.636Z,6.03
2023-02-21T07:50:52.202Z,8.40
2023-02-21T07:53:20.068Z,6.18
2023-02-21T07:55:47.553Z,13.50
2023-02-21T07:58:16.516Z,10.10
2023-02-21T08:00:44.013Z,5.78
2023-02-21T08:03:13.307Z,4.82
2023-02-21T08:05:41.096Z,3.35
2023-02-21T08:08:08.988Z,5.60
2023-02-21T08:10:36.924Z,5.00
2023-02-21T08:13:04.474Z,8.70
2023-02-21T08:15:33.450Z,5.95
2023-02-21T08:18:01.013Z,6.75
2023-02-21T08:20:28.532Z,14.40
2023-02-21T08:22:56.074Z,13.07
2023-02-21T08:25:24.147Z,6.40
2023-02-21T08:27:55.330Z,3.30
2023-02-21T08:30:25.309Z,4.88
2023-02-21T08:32:55.129Z,5.38
2023-02-21T08:35:23.129Z,5.15
2023-02-21T08:37:51.190Z,9.48
2023-02-21T08:40:21.002Z,3.67
2023-02-21T08:42:50.417Z,8.95
2023-02-21T08:45:18.842Z,5.60
2023-02-21T08:47:47.145Z,9.70
2023-02-21T08:50:16.599Z,11.68
2023-02-21T08:52:44.236Z,9.43
2023-02-21T08:55:12.164Z,7.57
2023-02-21T08:57:39.632Z,6.50
2023-02-21T09:00:11.025Z,9.75
2023-02-21T09:02:40.054Z,8.70
2023-02-21T09:05:08.352Z,14.43
2023-02-21T09:07:37.280Z,11.55
2023-02-21T09:10:05.022Z,11.90
2023-02-21T09:12:35.198Z,11.55
2023-02-21T09:15:02.777Z,12.90
2023-02-21T09:17:33.827Z,14.35
2023-02-21T09:20:01.873Z,5.43
2023-02-21T09:22:31.641Z,10.52
2023-02-21T09:25:00.882Z,9.38
2023-02-21T09:27:37.069Z,7.93
2023-02-21T09:30:06.347Z,7.45
2023-02-21T09:32:33.964Z,6.65
2023-02-21T09:35:01.876Z,8.23
2023-02-21T09:37:30.234Z,8.00
2023-02-21T09:39:57.998Z,7.65
2023-02-21T09:42:29.769Z,7.45
2023-02-21T09:44:57.506Z,5.70
2023-02-21T09:47:28.587Z,3.40
2023-02-21T09:49:59.623Z,6.72
2023-02-21T09:52:30.631Z,8.63
2023-02-21T09:54:59.013Z,4.15
2023-02-21T09:57:27.978Z,5.13
2023-02-21T09:59:55.432Z,8.38
2023-02-21T10:02:31.802Z,2.95
2023-02-21T10:05:03.899Z,8.88
2023-02-21T10:07:38.254Z,8.38
2023-02-21T10:12:36.780Z,7.40
2023-02-21T10:15:16.764Z,10.85
2023-02-21T10:17:46.484Z,2.50
2023-02-21T10:20:15.198Z,3.10
2023-02-21T10:22:47.262Z,6.88
2023-02-21T10:25:21.740Z,4.40
2023-02-21T10:27:51.342Z,1.60
2023-02-21T10:30:21.776Z,4.35
2023-02-21T10:32:49.353Z,5.13
2023-02-21T10:35:19.112Z,4.40
2023-02-21T10:37:48.428Z,4.90
2023-02-21T10:40:28.357Z,3.13
2023-02-21T10:43:01.409Z,5.03
2023-02-21T10:45:36.114Z,5.22
2023-02-21T10:48:05.016Z,3.15
2023-02-21T10:50:43.819Z,5.22
2023-02-21T10:53:23.205Z,4.45
2023-02-21T10:56:07.368Z,7.90
2023-02-21T10:58:36.908Z,6.95
2023-02-21T11:01:13.309Z,4.68
2023-02-21T11:03:44.455Z,2.50
2023-02-21T11:06:22.123Z,3.65
2023-02-21T11:08:49.644Z,11.15
2023-02-21T11:11:17.200Z,5.10
2023-02-21T11:13:46.380Z,8.13
2023-02-21T11:16:17.947Z,7.88
2023-02-21T11:18:45.735Z,8.85
2023-02-21T11:21:15.047Z,5.38
2023-02-21T11:23:46.328Z,6.20
2023-02-21T11:26:14.010Z,11.77
2023-02-21T11:28:44.366Z,5.28
2023-02-21T11:31:19.332Z,5.47
2023-02-21T11:33:51.206Z,6.07
2023-02-21T11:36:19.606Z,3.97
2023-02-21T11:39:01.015Z,7.57
2023-02-21T11:41:29.402Z,7.13
2023-02-21T11:43:57.453Z,5.93
2023-02-21T11:46:38.815Z,2.65
2023-02-21T11:49:09.308Z,7.70
2023-02-21T11:51:42.470Z,7.22
2023-02-21T11:54:10.063Z,5.60
2023-02-21T11:56:50.396Z,5.43
2023-02-21T11:59:23.402Z,5.05
2023-02-21T12:01:56.665Z,6.20
2023-02-21T12:04:39.094Z,2.78
2023-02-21T12:07:12.640Z,2.45
2023-02-21T12:09:45.145Z,3.78
2023-02-21T12:12:19.671Z,4.60
2023-02-21T12:14:57.392Z,7.80
2023-02-21T12:17:33.724Z,3.70
2023-02-21T12:20:10.266Z,4.00
2023-02-21T12:22:45.449Z,8.27
2023-02-21T12:25:18.223Z,4.20
2023-02-21T12:27:50.364Z,4.32
2023-02-21T12:30:27.532Z,9.40
2023-02-21T12:33:04.054Z,4.10
2023-02-21T12:35:45.312Z,4.35
2023-02-21T12:38:15.946Z,2.47
2023-02-21T12:40:47.660Z,3.08
2023-02-21T12:43:36.665Z,3.90
2023-02-21T12:46:09.971Z,10.55
2023-02-21T12:48:40.664Z,1.85
2023-02-21T12:51:10.075Z,2.17
2023-02-21T12:53:40.617Z,5.30
2023-02-21T12:56:10.913Z,7.70
2023-02-21T12:58:41.891Z,4.65
2023-02-21T13:01:12.013Z,8.45
2023-02-21T13:03:45.578Z,3.45
2023-02-21T13:06:16.742Z,9.73
2023-02-21T13:08:48.518Z,12.23
2023-02-21T13:11:18.680Z,5.25
2023-02-21T13:13:46.514Z,9.25
2023-02-21T13:16:18.522Z,4.03
2023-02-21T13:18:48.438Z,3.33
2023-02-21T13:21:21.886Z,3.83
2023-02-21T13:24:08.165Z,5.63
2023-02-21T13:26:50.403Z,2.60
2023-02-21T13:29:20.320Z,6.95
2023-02-21T13:31:48.088Z,3.70
2023-02-21T13:34:21.536Z,4.75
2023-02-21T13:36:49.174Z,4.43
2023-02-21T13:39:18.570Z,8.93
2023-02-21T13:41:47.746Z,4.90
2023-02-21T13:44:19.941Z,5.63
2023-02-21T13:47:02.321Z,4.22
2023-02-21T13:49:42.900Z,7.88
2023-02-21T13:52:25.147Z,3.83
2023-02-21T13:55:11.156Z,2.15
2023-02-21T13:57:39.892Z,3.97
2023-02-21T14:00:23.479Z,4.78
2023-02-21T14:02:55.946Z,4.65
2023-02-21T14:05:25.276Z,2.30
2023-02-21T14:07:57.517Z,4.05
2023-02-21T14:10:29.614Z,1.75
2023-02-21T14:12:59.164Z,1.80
2023-02-21T14:15:37.278Z,8.15
2023-02-21T14:18:05.072Z,3.30
2023-02-21T14:20:36.297Z,3.95
2023-02-21T14:23:05.628Z,5.25
2023-02-21T14:25:34.859Z,4.72
2023-02-21T14:28:03.236Z,2.45
2023-02-21T14:30:33.688Z,2.50
2023-02-21T14:33:17.979Z,5.50
2023-02-21T14:35:50.770Z,3.25
2023-02-21T14:38:21.265Z,2.65
2023-02-21T14:40:56.129Z,6.57
2023-02-21T14:43:32.837Z,3.55
2023-02-21T14:46:08.410Z,1.70
2023-02-21T14:48:44.056Z,1.70
2023-02-21T14:51:28.667Z,4.75
2023-02-21T14:56:35.166Z,3.22
2023-02-21T14:59:09.677Z,3.65
2023-02-21T15:01:47.175Z,7.13
2023-02-21T15:04:18.949Z,7.65
2023-02-21T15:06:58.511Z,4.75
2023-02-21T15:09:26.658Z,2.38
2023-02-21T15:11:55.330Z,1.95
2023-02-21T15:14:24.282Z,1.52
2023-02-21T15:16:53.384Z,3.08
2023-02-21T15:19:22.865Z,2.55
2023-02-21T15:22:07.036Z,3.75
2023-02-21T15:24:34.590Z,2.60
2023-02-21T15:27:09.455Z,1.65
2023-02-21T15:29:37.191Z,2.95
2023-02-21T15:32:04.993Z,5.25
2023-02-21T15:34:35.031Z,1.48
2023-02-21T15:37:07.978Z,9.07
2023-02-21T15:39:36.498Z,2.72
2023-02-21T15:42:06.076Z,6.18
2023-02-21T15:44:37.726Z,5.35
2023-02-21T15:47:08.392Z,1.75
2023-02-21T15:49:37.683Z,4.45
2023-02-21T15:52:06.767Z,4.68
2023-02-21T15:54:35.129Z,2.83
2023-02-21T15:57:04.365Z,3.90
2023-02-21T15:59:32.606Z,5.32
2023-02-21T16:02:22.629Z,5.43
2023-02-21T16:04:51.000Z,2.40
2023-02-21T16:07:22.751Z,3.10
2023-02-21T16:09:51.082Z,1.80
2023-02-21T16:12:32.399Z,1.63
2023-02-21T16:15:01.077Z,1.70
2023-02-21T16:17:30.298Z,2.80
2023-02-21T16:19:59.908Z,0.70
2023-02-21T16:22:32.933Z,1.70
2023-02-21T16:25:18.999Z,0.80
2023-02-21T16:27:47.959Z,1.10
2023-02-21T16:30:16.509Z,1.60
2023-02-21T16:32:45.809Z,2.63
2023-02-21T16:35:17.823Z,1.40
2023-02-21T16:37:46.703Z,2.20
2023-02-21T16:40:15.594Z,1.95
2023-02-21T16:42:43.851Z,0.85
2023-02-21T16:45:12.057Z,2.25
2023-02-21T16:47:39.599Z,1.40
2023-02-21T16:50:08.163Z,2.00
2023-02-21T16:52:35.636Z,1.38
2023-02-21T16:55:04.580Z,1.88
2023-02-21T16:57:32.138Z,2.42
2023-02-21T16:59:59.682Z,2.50
2023-02-21T17:02:27.421Z,2.05
2023-02-21T17:04:55.885Z,1.58
2023-02-21T17:07:24.342Z,5.72
2023-02-21T17:09:53.834Z,2.55
2023-02-21T17:12:22.935Z,1.45
2023-02-21T17:14:50.466Z,4.25
2023-02-21T17:17:18.579Z,2.25
2023-02-21T17:19:46.307Z,1.75
2023-02-21T17:22:13.803Z,3.25
2023-02-21T17:24:44.335Z,5.13
2023-02-21T17:27:11.892Z,3.83
2023-02-21T17:29:40.707Z,2.20
2023-02-21T17:32:08.867Z,1.95
2023-02-21T17:34:36.807Z,2.97
2023-02-21T17:37:28.509Z,5.95
2023-02-21T17:39:56.734Z,2.55
2023-02-21T17:42:24.752Z,2.88
2023-02-21T17:44:53.604Z,5.60
2023-02-21T17:47:21.992Z,4.40
2023-02-21T17:49:49.839Z,4.82
2023-02-21T17:52:17.883Z,5.32
2023-02-21T17:54:45.459Z,2.13
2023-02-21T17:57:13.619Z,5.03
2023-02-21T17:59:42.294Z,1.85
2023-02-21T18:02:11.802Z,1.70
2023-02-21T18:04:39.401Z,2.60
2023-02-21T18:07:06.938Z,2.40
2023-02-21T18:09:35.956Z,3.03
2023-02-21T18:12:03.834Z,3.97
2023-02-21T18:14:32.690Z,2.13
2023-02-21T18:17:00.413Z,3.17
2023-02-21T18:19:29.636Z,2.35
2023-02-21T18:21:57.243Z,2.95
2023-02-21T18:24:25.569Z,2.67
2023-02-21T18:26:53.084Z,2.42
2023-02-21T18:29:20.621Z,6.60
2023-02-21T18:31:52.534Z,2.03
2023-02-21T18:34:20.095Z,5.18
2023-02-21T18:36:50.300Z,3.67
2023-02-21T18:42:09.246Z,1.90
2023-02-21T18:44:36.762Z,4.15
2023-02-21T18:47:04.322Z,2.22
2023-02-21T18:49:37.818Z,4.65
2023-02-21T18:52:08.316Z,2.85
2023-02-21T18:54:36.347Z,2.90
2023-02-21T18:57:04.037Z,4.15
2023-02-21T18:59:32.221Z,3.90
2023-02-21T19:01:59.759Z,5.68
2023-02-21T19:07:20.742Z,3.20
2023-02-21T19:09:50.159Z,2.10
2023-02-21T19:12:17.729Z,2.97
2023-02-21T19:14:45.322Z,4.00
2023-02-21T19:17:12.914Z,3.00
2023-02-21T19:19:40.450Z,6.88
2023-02-21T19:22:08.308Z,3.75
2023-02-21T19:24:37.576Z,4.63
2023-02-21T19:27:05.356Z,2.33
2023-02-21T19:29:32.997Z,3.65
2023-02-21T19:32:00.683Z,5.90
2023-02-21T19:34:28.453Z,5.72
2023-02-21T19:36:56.140Z,3.30
2023-02-21T19:39:24.015Z,3.88
2023-02-21T19:41:53.392Z,2.25
2023-02-21T19:44:24.338Z,4.00
2023-02-21T19:46:52.341Z,7.47
2023-02-21T19:49:20.789Z,2.30
2023-02-21T19:51:53.179Z,13.88
2023-02-21T19:54:21.658Z,4.30
2023-02-21T19:56:50.034Z,2.17
2023-02-21T19:59:20.365Z,2.17
2023-02-21T20:01:47.909Z,2.60
2023-02-21T20:04:17.565Z,2.92
2023-02-21T20:06:47.086Z,1.90
2023-02-21T20:09:14.668Z,1.75
2023-02-21T20:11:42.203Z,2.47
2023-02-21T20:14:10.502Z,2.25
2023-02-21T20:16:40.459Z,1.77
2023-02-21T20:19:08.520Z,1.65
2023-02-21T20:21:36.830Z,1.20
2023-02-21T20:24:07.140Z,4.78
2023-02-21T20:26:35.562Z,2.78
2023-02-21T20:29:03.355Z,1.50
2023-02-21T20:31:32.621Z,1.90
2023-02-21T20:34:02.855Z,2.08
2023-02-21T20:36:30.934Z,3.58
2023-02-21T20:39:01.230Z,6.03
2023-02-21T20:41:29.182Z,1.80
2023-02-21T20:43:57.245Z,1.63
2023-02-21T20:46:25.209Z,1.67
2023-02-21T20:48:52.771Z,1.98
2023-02-21T20:51:29.160Z,1.38
2023-02-21T20:53:57.985Z,3.78
2023-02-21T20:56:30.332Z,3.88
2023-02-21T20:58:57.873Z,1.75
2023-02-21T21:01:25.743Z,4.32
2023-02-21T21:03:55.483Z,1.58
2023-02-21T21:06:23.205Z,3.33
2023-02-21T21:08:53.013Z,5.63
2023-02-21T21:11:21.853Z,2.42
2023-02-21T21:13:50.125Z,2.15
2023-02-21T21:16:17.750Z,6.78
2023-02-21T21:18:46.949Z,2.30
2023-02-21T21:21:14.905Z,1.83
2023-02-21T21:23:43.068Z,2.30
2023-02-21T21:26:12.192Z,2.17
2023-02-21T21:28:41.208Z,7.40
2023-02-21T21:31:13.796Z,2.10
2023-02-21T21:33:42.169Z,4.60
2023-02-21T21:36:09.963Z,1.95
2023-02-21T21:38:40.868Z,2.83
2023-02-21T21:41:13.523Z,2.67
2023-02-21T21:43:43.761Z,1.75
2023-02-21T21:46:12.021Z,4.28
2023-02-21T21:48:42.788Z,3.05
2023-02-21T21:51:14.488Z,3.47
2023-02-21T21:53:42.694Z,3.00
2023-02-21T21:56:11.376Z,2.50
2023-02-21T21:58:39.263Z,4.82
2023-02-21T22:01:09.759Z,4.05
2023-02-21T22:03:37.307Z,5.68
2023-02-21T22:06:05.315Z,5.03
2023-02-21T22:08:32.972Z,7.40
2023-02-21T22:11:01.022Z,6.90
2023-02-21T22:13:32.720Z,7.10
2023-02-21T22:16:00.574Z,8.68
2023-02-21T22:18:29.733Z,9.88
2023-02-21T22:20:59.112Z,9.57
2023-02-21T22:23:27.082Z,7.57
2023-02-21T22:25:54.651Z,13.88
2023-02-21T22:28:22.201Z,9.18
2023-02-21T22:30:50.339Z,10.27
2023-02-21T22:33:20.343Z,10.10
2023-02-21T22:35:49.385Z,10.75
2023-02-21T22:38:17.509Z,8.35
2023-02-21T22:40:46.261Z,9.68
2023-02-21T22:43:14.036Z,12.05
2023-02-21T22:45:44.272Z,11.80
2023-02-21T22:48:11.842Z,14.40
2023-02-21T22:50:39.656Z,14.80
2023-02-21T22:53:13.031Z,12.57
2023-02-21T22:55:40.626Z,12.40
2023-02-21T22:58:09.278Z,7.97
2023-02-21T23:00:37.200Z,8.77
2023-02-21T23:03:13.203Z,6.22
2023-02-21T23:05:41.185Z,11.27
2023-02-21T23:08:10.627Z,10.05
2023-02-21T23:10:40.447Z,9.15
2023-02-21T23:13:08.975Z,11.98
2023-02-21T23:15:37.291Z,10.77
2023-02-21T23:18:05.103Z,9.38
2023-02-21T23:20:33.826Z,12.00
2023-02-21T23:23:02.004Z,8.52
2023-02-21T23:25:35.179Z,7.82
2023-02-21T23:28:04.894Z,7.77
2023-02-21T23:30:40.211Z,6.88
2023-02-21T23:33:08.849Z,7.05
2023-02-21T23:35:36.791Z,7.60
2023-02-21T23:38:06.385Z,8.13
2023-02-21T23:40:39.260Z,6.05
2023-02-21T23:43:10.104Z,10.15
2023-02-21T23:45:39.338Z,10.85
2023-02-21T23:48:08.585Z,6.15
2023-02-21T23:50:37.162Z,9.10
2023-02-21T23:53:05.418Z,10.45
2023-02-21T23:55:35.738Z,7.82
2023-02-21T23:58:09.076Z,8.13
